createdAt,value
2023-03-10T00:03:20.403Z,53.9
2023-03-10T00:08:59.891Z,53.8
2023-03-10T00:14:51.942Z,53.8
2023-03-10T00:20:45.293Z,53.7
2023-03-10T00:26:22.498Z,53.7
2023-03-10T00:32:16.439Z,53.6
2023-03-10T00:37:54.756Z,53.6
2023-03-10T00:43:48.727Z,53.6
2023-03-10T00:49:26.054Z,53.5
2023-03-10T00:55:02.818Z,53.4
2023-03-10T01:00:55.459Z,53.4
2023-03-10T01:06:49.414Z,53.4
2023-03-10T01:12:42.532Z,53.3
2023-03-10T01:18:35.881Z,53.3
2023-03-10T01:24:12.999Z,53.3
2023-03-10T01:29:50.080Z,53.2
2023-03-10T01:35:28.751Z,53.2
2023-03-10T01:40:52.017Z,53.1
2023-03-10T01:46:45.001Z,53.1
2023-03-10T01:52:37.853Z,53.1
2023-03-10T01:58:30.792Z,53
2023-03-10T02:04:23.991Z,52.9
2023-03-10T02:09:34.779Z,52.9
2023-03-10T02:15:12.269Z,53.1
2023-03-10T02:20:50.487Z,54.3
2023-03-10T02:26:52.143Z,55.9
2023-03-10T02:32:56.176Z,57.4
2023-03-10T02:38:33.639Z,57.5
2023-03-10T02:44:11.165Z,57.5
2023-03-10T02:49:33.836Z,57.9
2023-03-10T02:55:10.971Z,59.5
2023-03-10T03:01:04.053Z,60.3
2023-03-10T03:06:41.207Z,60.3
2023-03-10T03:12:02.397Z,60.3
2023-03-10T03:17:42.456Z,60.3
2023-03-10T03:23:35.291Z,60.3
2023-03-10T03:28:56.683Z,60.2
2023-03-10T03:34:53.570Z,60.1
2023-03-10T03:40:31.485Z,60.1
2023-03-10T03:46:23.712Z,60.1
2023-03-10T03:52:20.480Z,60
2023-03-10T03:58:13.009Z,59.9
2023-03-10T04:03:50.284Z,59.9
2023-03-10T04:09:28.324Z,59.9
2023-03-10T04:15:20.437Z,59.8
2023-03-10T04:21:29.073Z,59.8
2023-03-10T04:26:51.940Z,59.8
2023-03-10T04:32:38.517Z,59.7
2023-03-10T04:38:31.460Z,59.6
2023-03-10T04:44:15.021Z,59.6
2023-03-10T04:49:57.200Z,59.5
2023-03-10T04:55:33.315Z,59.5
2023-03-10T05:01:19.984Z,59.4
2023-03-10T05:07:15.680Z,59.4
2023-03-10T05:13:07.220Z,59.3
2023-03-10T05:19:00.139Z,59.3
2023-03-10T05:24:37.633Z,59.2
2023-03-10T05:30:00.523Z,59.2
2023-03-10T05:35:38.141Z,59.1
2023-03-10T05:41:15.044Z,59.1
2023-03-10T05:47:08.129Z,59
2023-03-10T05:53:03.720Z,59
2023-03-10T05:58:40.843Z,58.9
2023-03-10T06:04:18.192Z,58.9
2023-03-10T06:10:15.277Z,58.8
2023-03-10T06:16:08.247Z,58.8
2023-03-10T06:22:02.231Z,58.8
2023-03-10T06:27:55.069Z,58.7
2023-03-10T06:33:47.905Z,58.6
2023-03-10T06:50:42.890Z,58.5
2023-03-10T06:56:20.534Z,58.4
2023-03-10T07:01:42.512Z,58.4
2023-03-10T07:07:20.686Z,58.4
2023-03-10T07:12:59.714Z,58.3
2023-03-10T07:18:53.902Z,58.3
2023-03-10T07:24:31.776Z,58.2
2023-03-10T07:30:25.093Z,58.2
2023-03-10T07:36:18.630Z,58.1
2023-03-10T07:42:11.991Z,58.1
2023-03-10T07:48:05.052Z,58
2023-03-10T07:53:42.735Z,57.9
2023-03-10T07:59:20.221Z,57.9
2023-03-10T08:05:14.355Z,57.9
2023-03-10T08:11:07.525Z,57.8
2023-03-10T08:28:02.253Z,57.7
2023-03-10T08:34:14.653Z,57.6
2023-03-10T08:39:57.887Z,57.6
2023-03-10T08:45:58.313Z,57.6
2023-03-10T08:51:36.642Z,57.5
2023-03-10T08:57:17.383Z,57.4
2023-03-10T09:03:14.401Z,57.4
2023-03-10T09:09:07.236Z,57.3
2023-03-10T09:15:14.348Z,57.3
2023-03-10T09:21:10.584Z,57.3
2023-03-10T09:27:04.352Z,57.2
2023-03-10T09:33:10.229Z,57.1
2023-03-10T09:39:00.241Z,57.1
2023-03-10T09:45:10.556Z,57.1
2023-03-10T09:51:02.408Z,57
2023-03-10T09:57:05.614Z,57
2023-03-10T10:02:58.394Z,56.9
2023-03-10T10:09:11.355Z,56.9
2023-03-10T10:15:29.753Z,56.8
2023-03-10T10:22:09.478Z,56.8
2023-03-10T10:28:04.042Z,56.7
2023-03-10T10:33:59.926Z,56.7
2023-03-10T10:40:01.144Z,56.6
2023-03-10T10:45:39.137Z,56.6
2023-03-10T10:51:17.978Z,56.5
2023-03-10T10:57:10.539Z,56.5
2023-03-10T11:03:04.365Z,56.4
2023-03-10T11:08:57.967Z,56.4
2023-03-10T11:14:35.458Z,56.4
2023-03-10T11:20:14.908Z,56.3
2023-03-10T11:26:07.777Z,56.3
2023-03-10T11:32:01.008Z,56.2
2023-03-10T11:38:01.690Z,56.1
2023-03-10T11:43:40.290Z,56.1
2023-03-10T11:49:31.745Z,56.1
2023-03-10T11:55:23.790Z,56
2023-03-10T12:01:17.688Z,56
2023-03-10T12:07:11.643Z,55.9
2023-03-10T12:12:49.396Z,55.9
2023-03-10T12:18:43.874Z,55.9
2023-03-10T12:24:35.791Z,55.8
2023-03-10T12:30:26.996Z,55.8
2023-03-10T12:36:21.749Z,55.7
2023-03-10T12:41:59.556Z,55.6
2023-03-10T12:47:53.689Z,55.6
2023-03-10T12:53:47.327Z,55.6
2023-03-10T12:59:41.102Z,55.5
2023-03-10T13:05:25.585Z,55.4
2023-03-10T13:11:03.090Z,55.4
2023-03-10T13:16:41.560Z,55.4
2023-03-10T13:22:34.333Z,55.3
2023-03-10T13:27:58.177Z,55.3
2023-03-10T13:33:46.668Z,55.3
2023-03-10T13:39:27.820Z,55.2
2023-03-10T13:45:18.201Z,55.1
2023-03-10T13:51:10.363Z,55.1
2023-03-10T13:57:01.941Z,55.1
2023-03-10T14:02:54.740Z,55
2023-03-10T14:08:51.241Z,55
2023-03-10T14:14:44.798Z,54.9
2023-03-10T14:20:07.059Z,54.9
2023-03-10T14:25:59.804Z,54.9
2023-03-10T14:30:52.265Z,54.8
2023-03-10T14:36:34.076Z,54.8
2023-03-10T14:42:26.893Z,54.7
2023-03-10T14:48:22.135Z,54.7
2023-03-10T14:54:26.587Z,54.6
2023-03-10T15:00:19.706Z,54.6
2023-03-10T15:06:21.864Z,54.6
2023-03-10T15:12:25.935Z,54.5
2023-03-10T15:18:19.462Z,54.4
2023-03-10T15:23:56.343Z,54.4
2023-03-10T15:29:48.678Z,54.4
2023-03-10T15:35:43.764Z,54.3
2023-03-10T15:41:49.673Z,54.3
2023-03-10T15:47:43.875Z,54.3
2023-03-10T15:53:36.890Z,54.2
2023-03-10T15:59:28.780Z,54.1
2023-03-10T16:05:21.831Z,54.1
2023-03-10T16:11:15.091Z,54.1
2023-03-10T16:17:08.395Z,54
2023-03-10T16:22:45.699Z,53.9
2023-03-10T16:28:24.455Z,53.9
2023-03-10T16:34:16.832Z,53.9
2023-03-10T16:40:09.954Z,53.9
2023-03-10T16:46:03.582Z,53.8
2023-03-10T16:50:53.393Z,53.8
2023-03-10T16:55:59.257Z,53.7
2023-03-10T17:01:37.710Z,53.7
2023-03-10T17:07:17.156Z,53.6
2023-03-10T17:13:19.566Z,53.6
2023-03-10T17:19:13.412Z,53.6
2023-03-10T17:24:50.573Z,53.5
2023-03-10T17:30:45.751Z,53.4
2023-03-10T17:36:39.394Z,53.4
2023-03-10T17:42:31.316Z,53.4
2023-03-10T17:48:38.259Z,53.3
2023-03-10T17:54:32.041Z,53.3
2023-03-10T18:00:08.681Z,53.3
2023-03-10T18:06:04.959Z,53.2
2023-03-10T18:11:57.709Z,53.1
2023-03-10T18:17:49.045Z,53.1
2023-03-10T18:23:41.755Z,53.1
2023-03-10T18:29:19.347Z,53
2023-03-10T18:35:12.206Z,53
2023-03-10T18:41:06.097Z,52.9
2023-03-10T18:46:58.998Z,52.9
2023-03-10T18:52:35.027Z,52.8
2023-03-10T18:58:27.949Z,52.8
2023-03-10T19:04:06.111Z,52.8
2023-03-10T19:09:59.503Z,52.8
2023-03-10T19:15:52.559Z,52.7
2023-03-10T19:21:46.248Z,52.6
2023-03-10T19:27:39.603Z,52.6
2023-03-10T19:33:32.360Z,52.6
2023-03-10T19:39:11.346Z,52.5
2023-03-10T19:44:32.262Z,52.4
2023-03-10T19:50:25.475Z,52.4
2023-03-10T20:07:19.948Z,52.3
2023-03-10T20:13:12.767Z,52.3
2023-03-10T20:19:04.706Z,52.2
2023-03-10T20:24:41.467Z,52.2
2023-03-10T20:30:19.455Z,52.1
2023-03-10T20:35:56.105Z,52.1
2023-03-10T20:41:49.863Z,52.3
2023-03-10T20:47:28.340Z,53.7
2023-03-10T20:53:20.767Z,55.4
2023-03-10T20:59:13.917Z,57
2023-03-10T21:05:07.760Z,57.4
2023-03-10T21:10:44.597Z,57.4
2023-03-10T21:16:22.338Z,57.4
2023-03-10T21:22:17.160Z,57.4
2023-03-10T21:27:08.275Z,57.4
2023-03-10T21:33:01.369Z,57.3
2023-03-10T21:38:54.282Z,57.3
2023-03-10T21:44:46.456Z,57.3
2023-03-10T21:50:39.718Z,57.1
2023-03-10T21:56:33.543Z,57
2023-03-10T22:02:09.282Z,56.9
2023-03-10T22:07:47.052Z,56.9
2023-03-10T22:13:39.927Z,56.9
2023-03-10T22:19:15.956Z,56.8
2023-03-10T22:25:08.467Z,56.8
2023-03-10T22:31:01.402Z,56.7
2023-03-10T22:36:53.414Z,56.6
2023-03-10T22:42:30.924Z,56.6
2023-03-10T22:47:37.877Z,56.6
2023-03-10T22:53:30.656Z,56.5
2023-03-10T22:59:23.508Z,56.4
2023-03-10T23:04:30.891Z,56.4
2023-03-10T23:10:07.146Z,56.4
2023-03-10T23:16:13.416Z,56.3
2023-03-10T23:22:06.260Z,56.3
2023-03-10T23:27:43.641Z,56.2
2023-03-10T23:33:36.821Z,56.2
2023-03-10T23:39:14.626Z,56.1
2023-03-10T23:44:20.367Z,56.1
2023-03-10T23:49:58.798Z,56.1
2023-03-10T23:55:36.793Z,56
